sensor_id;sensor_type;location;lat;lon;timestamp;P1;durP1;ratioP1;P2;durP2;ratioP2
53867;SDS011;41577;47.470;19.080;2023-11-21T00:00:07;19.92;;;10.52;;
53867;SDS011;41577;47.470;19.080;2023-11-21T00:00:23;20.33;;;10.45;;
53867;SDS011;41577;47.470;19.080;2023-11-21T00:00:35;19.75;;;10.95;;
53867;SDS011;41577;47.470;19.080;2023-11-21T00:00:46;20.58;;;11.18;;
53867;SDS011;41577;47.470;19.080;2023-11-21T00:00:58;20.58;;;10.93;;
53867;SDS011;41577;47.470;19.080;2023-11-21T00:01:10;19.48;;;10.05;;
53867;SDS011;41577;47.470;19.080;2023-11-21T00:01:22;17.52;;;9.85;;
53867;SDS011;41577;47.470;19.080;2023-11-21T00:01:34;19.98;;;10.38;;
53867;SDS011;41577;47.470;19.080;2023-11-21T00:01:46;22.50;;;10.98;;
53867;SDS011;41577;47.470;19.080;2023-11-21T00:01:58;27.15;;;11.50;;
53867;SDS011;41577;47.470;19.080;2023-11-21T00:02:10;24.60;;;11.07;;
53867;SDS011;41577;47.470;19.080;2023-11-21T00:02:22;23.55;;;10.82;;
53867;SDS011;41577;47.470;19.080;2023-11-21T00:02:34;19.63;;;11.35;;
53867;SDS011;41577;47.470;19.080;2023-11-21T00:02:46;20.15;;;10.93;;
53867;SDS011;41577;47.470;19.080;2023-11-21T00:02:58;19.60;;;10.75;;
53867;SDS011;41577;47.470;19.080;2023-11-21T00:03:10;20.38;;;10.77;;
53867;SDS011;41577;47.470;19.080;2023-11-21T00:03:22;20.48;;;10.90;;
53867;SDS011;41577;47.470;19.080;2023-11-21T00:03:34;19.08;;;10.40;;
53867;SDS011;41577;47.470;19.080;2023-11-21T00:03:46;18.58;;;10.10;;
53867;SDS011;41577;47.470;19.080;2023-11-21T00:03:58;17.45;;;9.65;;
53867;SDS011;41577;47.470;19.080;2023-11-21T00:04:09;15.98;;;9.30;;
53867;SDS011;41577;47.470;19.080;2023-11-21T00:04:21;16.63;;;9.52;;
53867;SDS011;41577;47.470;19.080;2023-11-21T00:04:33;19.13;;;9.70;;
53867;SDS011;41577;47.470;19.080;2023-11-21T00:04:45;19.52;;;10.00;;
53867;SDS011;41577;47.470;19.080;2023-11-21T00:04:57;15.35;;;9.10;;
53867;SDS011;41577;47.470;19.080;2023-11-21T00:05:09;19.05;;;9.20;;
53867;SDS011;41577;47.470;19.080;2023-11-21T00:05:21;20.50;;;9.85;;
53867;SDS011;41577;47.470;19.080;2023-11-21T00:05:33;20.00;;;10.52;;
53867;SDS011;41577;47.470;19.080;2023-11-21T00:05:45;21.80;;;10.90;;
53867;SDS011;41577;47.470;19.080;2023-11-21T00:05:57;24.08;;;10.32;;
53867;SDS011;41577;47.470;19.080;2023-11-21T00:06:09;19.50;;;9.57;;
53867;SDS011;41577;47.470;19.080;2023-11-21T00:06:21;19.90;;;9.35;;
53867;SDS011;41577;47.470;19.080;2023-11-21T00:06:33;18.50;;;9.95;;
53867;SDS011;41577;47.470;19.080;2023-11-21T00:06:45;17.77;;;9.80;;
53867;SDS011;41577;47.470;19.080;2023-11-21T00:06:56;16.65;;;9.70;;
53867;SDS011;41577;47.470;19.080;2023-11-21T00:07:08;16.10;;;9.35;;
53867;SDS011;41577;47.470;19.080;2023-11-21T00:07:20;17.35;;;9.43;;
53867;SDS011;41577;47.470;19.080;2023-11-21T00:07:32;16.58;;;9.25;;
53867;SDS011;41577;47.470;19.080;2023-11-21T00:07:43;18.95;;;9.30;;
53867;SDS011;41577;47.470;19.080;2023-11-21T00:07:56;21.35;;;9.57;;
53867;SDS011;41577;47.470;19.080;2023-11-21T00:08:07;23.55;;;9.82;;
53867;SDS011;41577;47.470;19.080;2023-11-21T00:08:20;23.88;;;9.57;;
53867;SDS011;41577;47.470;19.080;2023-11-21T00:08:31;21.02;;;9.63;;
53867;SDS011;41577;47.470;19.080;2023-11-21T00:08:43;20.45;;;9.82;;
53867;SDS011;41577;47.470;19.080;2023-11-21T00:08:55;17.33;;;9.82;;
53867;SDS011;41577;47.470;19.080;2023-11-21T00:09:07;16.25;;;9.65;;
53867;SDS011;41577;47.470;19.080;2023-11-21T00:09:18;15.02;;;9.27;;
53867;SDS011;41577;47.470;19.080;2023-11-21T00:09:30;15.20;;;8.90;;
53867;SDS011;41577;47.470;19.080;2023-11-21T00:09:42;19.38;;;8.80;;
53867;SDS011;41577;47.470;19.080;2023-11-21T00:09:54;20.48;;;9.10;;
53867;SDS011;41577;47.470;19.080;2023-11-21T00:10:06;19.50;;;9.25;;
53867;SDS011;41577;47.470;19.080;2023-11-21T00:10:19;15.73;;;8.50;;
53867;SDS011;41577;47.470;19.080;2023-11-21T00:10:31;16.08;;;8.82;;
53867;SDS011;41577;47.470;19.080;2023-11-21T00:10:43;15.98;;;9.15;;
53867;SDS011;41577;47.470;19.080;2023-11-21T00:10:54;16.35;;;9.90;;
53867;SDS011;41577;47.470;19.080;2023-11-21T00:11:06;16.17;;;9.65;;
53867;SDS011;41577;47.470;19.080;2023-11-21T00:11:18;15.95;;;9.57;;
53867;SDS011;41577;47.470;19.080;2023-11-21T00:11:30;14.68;;;9.50;;
53867;SDS011;41577;47.470;19.080;2023-11-21T00:11:42;14.60;;;9.38;;
53867;SDS011;41577;47.470;19.080;2023-11-21T00:11:55;13.90;;;9.48;;
53867;SDS011;41577;47.470;19.080;2023-11-21T00:12:07;18.90;;;9.40;;
53867;SDS011;41577;47.470;19.080;2023-11-21T00:12:19;20.00;;;9.70;;
53867;SDS011;41577;47.470;19.080;2023-11-21T00:12:31;16.38;;;9.05;;
53867;SDS011;41577;47.470;19.080;2023-11-21T00:12:42;14.80;;;9.07;;
53867;SDS011;41577;47.470;19.080;2023-11-21T00:12:54;16.52;;;9.10;;
53867;SDS011;41577;47.470;19.080;2023-11-21T00:13:06;22.27;;;9.35;;
53867;SDS011;41577;47.470;19.080;2023-11-21T00:13:18;21.42;;;9.07;;
53867;SDS011;41577;47.470;19.080;2023-11-21T00:13:30;19.45;;;8.77;;
53867;SDS011;41577;47.470;19.080;2023-11-21T00:13:42;16.08;;;8.52;;
53867;SDS011;41577;47.470;19.080;2023-11-21T00:13:54;14.65;;;8.40;;
53867;SDS011;41577;47.470;19.080;2023-11-21T00:14:06;16.38;;;8.63;;
53867;SDS011;41577;47.470;19.080;2023-11-21T00:14:18;17.63;;;9.02;;
53867;SDS011;41577;47.470;19.080;2023-11-21T00:14:30;15.88;;;8.77;;
53867;SDS011;41577;47.470;19.080;2023-11-21T00:14:42;14.52;;;8.77;;
53867;SDS011;41577;47.470;19.080;2023-11-21T00:14:54;14.45;;;8.70;;
53867;SDS011;41577;47.470;19.080;2023-11-21T00:15:09;18.15;;;8.93;;
53867;SDS011;41577;47.470;19.080;2023-11-21T00:15:21;17.40;;;9.15;;
53867;SDS011;41577;47.470;19.080;2023-11-21T00:15:33;16.38;;;9.30;;
53867;SDS011;41577;47.470;19.080;2023-11-21T00:15:45;15.13;;;8.68;;
53867;SDS011;41577;47.470;19.080;2023-11-21T00:15:57;15.10;;;8.32;;
53867;SDS011;41577;47.470;19.080;2023-11-21T00:16:09;14.70;;;8.20;;
53867;SDS011;41577;47.470;19.080;2023-11-21T00:16:21;12.25;;;8.38;;
53867;SDS011;41577;47.470;19.080;2023-11-21T00:16:33;13.07;;;7.95;;
53867;SDS011;41577;47.470;19.080;2023-11-21T00:16:45;14.07;;;7.82;;
53867;SDS011;41577;47.470;19.080;2023-11-21T00:16:57;14.88;;;8.45;;
53867;SDS011;41577;47.470;19.080;2023-11-21T00:17:10;14.70;;;9.57;;
53867;SDS011;41577;47.470;19.080;2023-11-21T00:17:22;15.60;;;9.70;;
53867;SDS011;41577;47.470;19.080;2023-11-21T00:17:34;17.27;;;9.30;;
53867;SDS011;41577;47.470;19.080;2023-11-21T00:17:46;18.42;;;8.73;;
53867;SDS011;41577;47.470;19.080;2023-11-21T00:17:58;19.17;;;8.80;;
53867;SDS011;41577;47.470;19.080;2023-11-21T00:18:11;15.38;;;8.48;;
53867;SDS011;41577;47.470;19.080;2023-11-21T00:18:23;16.17;;;8.57;;
53867;SDS011;41577;47.470;19.080;2023-11-21T00:18:35;16.42;;;8.73;;
53867;SDS011;41577;47.470;19.080;2023-11-21T00:18:47;12.68;;;8.20;;
53867;SDS011;41577;47.470;19.080;2023-11-21T00:18:58;15.57;;;8.50;;
53867;SDS011;41577;47.470;19.080;2023-11-21T00:19:10;16.48;;;8.75;;
53867;SDS011;41577;47.470;19.080;2023-11-21T00:19:22;16.38;;;8.50;;
53867;SDS011;41577;47.470;19.080;2023-11-21T00:19:34;13.52;;;8.13;;
53867;SDS011;41577;47.470;19.080;2023-11-21T00:19:47;13.02;;;8.13;;
53867;SDS011;41577;47.470;19.080;2023-11-21T00:19:59;17.55;;;8.85;;
53867;SDS011;41577;47.470;19.080;2023-11-21T00:20:10;15.55;;;8.50;;
53867;SDS011;41577;47.470;19.080;2023-11-21T00:20:22;15.85;;;8.20;;
53867;SDS011;41577;47.470;19.080;2023-11-21T00:20:34;12.23;;;7.75;;
53867;SDS011;41577;47.470;19.080;2023-11-21T00:20:46;13.15;;;7.80;;
53867;SDS011;41577;47.470;19.080;2023-11-21T00:20:58;13.93;;;7.35;;
53867;SDS011;41577;47.470;19.080;2023-11-21T00:21:10;14.27;;;7.13;;
53867;SDS011;41577;47.470;19.080;2023-11-21T00:21:22;15.77;;;7.63;;
53867;SDS011;41577;47.470;19.080;2023-11-21T00:21:33;14.68;;;7.90;;
53867;SDS011;41577;47.470;19.080;2023-11-21T00:21:45;14.93;;;8.05;;
53867;SDS011;41577;47.470;19.080;2023-11-21T00:21:57;18.08;;;8.02;;
53867;SDS011;41577;47.470;19.080;2023-11-21T00:22:09;18.67;;;8.15;;
53867;SDS011;41577;47.470;19.080;2023-11-21T00:22:21;20.27;;;8.38;;
53867;SDS011;41577;47.470;19.080;2023-11-21T00:22:33;18.25;;;8.95;;
53867;SDS011;41577;47.470;19.080;2023-11-21T00:22:45;16.95;;;8.93;;
53867;SDS011;41577;47.470;19.080;2023-11-21T00:22:58;14.45;;;8.88;;
53867;SDS011;41577;47.470;19.080;2023-11-21T00:23:10;16.20;;;8.63;;
53867;SDS011;41577;47.470;19.080;2023-11-21T00:23:21;15.93;;;8.45;;
53867;SDS011;41577;47.470;19.080;2023-11-21T00:23:33;15.73;;;8.32;;
53867;SDS011;41577;47.470;19.080;2023-11-21T00:23:45;17.23;;;8.82;;
53867;SDS011;41577;47.470;19.080;2023-11-21T00:23:57;17.77;;;9.07;;
53867;SDS011;41577;47.470;19.080;2023-11-21T00:24:09;17.75;;;8.70;;
53867;SDS011;41577;47.470;19.080;2023-11-21T00:24:21;13.13;;;8.13;;
53867;SDS011;41577;47.470;19.080;2023-11-21T00:24:32;11.68;;;8.18;;
53867;SDS011;41577;47.470;19.080;2023-11-21T00:24:44;13.68;;;8.73;;
53867;SDS011;41577;47.470;19.080;2023-11-21T00:24:56;15.88;;;8.98;;
53867;SDS011;41577;47.470;19.080;2023-11-21T00:25:08;21.75;;;9.50;;
53867;SDS011;41577;47.470;19.080;2023-11-21T00:25:20;22.15;;;9.63;;
53867;SDS011;41577;47.470;19.080;2023-11-21T00:25:32;20.38;;;9.48;;
53867;SDS011;41577;47.470;19.080;2023-11-21T00:25:44;18.38;;;9.80;;
53867;SDS011;41577;47.470;19.080;2023-11-21T00:25:55;16.52;;;9.82;;
53867;SDS011;41577;47.470;19.080;2023-11-21T00:26:07;14.90;;;9.07;;
53867;SDS011;41577;47.470;19.080;2023-11-21T00:26:20;14.18;;;8.65;;
53867;SDS011;41577;47.470;19.080;2023-11-21T00:26:41;14.40;;;9.48;;
53867;SDS011;41577;47.470;19.080;2023-11-21T00:26:54;17.23;;;9.98;;
53867;SDS011;41577;47.470;19.080;2023-11-21T00:27:06;17.52;;;9.52;;
53867;SDS011;41577;47.470;19.080;2023-11-21T00:27:18;17.30;;;9.52;;
53867;SDS011;41577;47.470;19.080;2023-11-21T00:27:30;15.70;;;9.70;;
53867;SDS011;41577;47.470;19.080;2023-11-21T00:27:41;15.98;;;9.18;;
53867;SDS011;41577;47.470;19.080;2023-11-21T00:27:53;19.08;;;8.88;;
53867;SDS011;41577;47.470;19.080;2023-11-21T00:28:05;25.70;;;8.82;;
53867;SDS011;41577;47.470;19.080;2023-11-21T00:28:18;24.98;;;9.10;;
53867;SDS011;41577;47.470;19.080;2023-11-21T00:28:30;18.92;;;8.93;;
53867;SDS011;41577;47.470;19.080;2023-11-21T00:28:42;20.92;;;9.55;;
53867;SDS011;41577;47.470;19.080;2023-11-21T00:28:54;18.38;;;9.50;;
53867;SDS011;41577;47.470;19.080;2023-11-21T00:29:06;19.23;;;10.02;;
53867;SDS011;41577;47.470;19.080;2023-11-21T00:29:17;19.42;;;10.18;;
53867;SDS011;41577;47.470;19.080;2023-11-21T00:29:29;16.33;;;9.55;;
53867;SDS011;41577;47.470;19.080;2023-11-21T00:29:41;16.15;;;9.27;;
53867;SDS011;41577;47.470;19.080;2023-11-21T00:29:53;19.13;;;9.23;;
53867;SDS011;41577;47.470;19.080;2023-11-21T00:30:05;22.95;;;9.45;;
53867;SDS011;41577;47.470;19.080;2023-11-21T00:30:17;20.08;;;9.45;;
53867;SDS011;41577;47.470;19.080;2023-11-21T00:30:29;16.48;;;9.88;;
53867;SDS011;41577;47.470;19.080;2023-11-21T00:30:42;17.05;;;9.93;;
53867;SDS011;41577;47.470;19.080;2023-11-21T00:30:54;18.73;;;9.93;;
53867;SDS011;41577;47.470;19.080;2023-11-21T00:31:06;18.10;;;10.07;;
53867;SDS011;41577;47.470;19.080;2023-11-21T00:31:18;15.40;;;10.18;;
53867;SDS011;41577;47.470;19.080;2023-11-21T00:31:29;16.25;;;9.68;;
53867;SDS011;41577;47.470;19.080;2023-11-21T00:31:41;17.30;;;10.00;;
53867;SDS011;41577;47.470;19.080;2023-11-21T00:31:53;15.77;;;9.68;;
53867;SDS011;41577;47.470;19.080;2023-11-21T00:32:06;16.13;;;10.52;;
53867;SDS011;41577;47.470;19.080;2023-11-21T00:32:17;16.13;;;10.73;;
53867;SDS011;41577;47.470;19.080;2023-11-21T00:32:29;16.73;;;10.60;;
53867;SDS011;41577;47.470;19.080;2023-11-21T00:32:42;16.33;;;10.38;;
53867;SDS011;41577;47.470;19.080;2023-11-21T00:32:54;16.52;;;10.15;;
53867;SDS011;41577;47.470;19.080;2023-11-21T00:33:06;14.65;;;9.45;;
53867;SDS011;41577;47.470;19.080;2023-11-21T00:33:18;15.38;;;9.30;;
53867;SDS011;41577;47.470;19.080;2023-11-21T00:33:30;15.23;;;9.25;;
53867;SDS011;41577;47.470;19.080;2023-11-21T00:33:43;17.05;;;9.60;;
53867;SDS011;41577;47.470;19.080;2023-11-21T00:33:56;21.55;;;9.75;;
53867;SDS011;41577;47.470;19.080;2023-11-21T00:34:08;23.02;;;10.57;;
53867;SDS011;41577;47.470;19.080;2023-11-21T00:34:20;20.38;;;10.73;;
53867;SDS011;41577;47.470;19.080;2023-11-21T00:34:32;16.05;;;10.52;;
53867;SDS011;41577;47.470;19.080;2023-11-21T00:34:44;13.80;;;10.20;;
53867;SDS011;41577;47.470;19.080;2023-11-21T00:34:56;15.38;;;10.20;;
53867;SDS011;41577;47.470;19.080;2023-11-21T00:35:08;15.98;;;9.75;;
53867;SDS011;41577;47.470;19.080;2023-11-21T00:35:20;15.40;;;9.18;;
53867;SDS011;41577;47.470;19.080;2023-11-21T00:35:32;16.77;;;9.20;;
53867;SDS011;41577;47.470;19.080;2023-11-21T00:35:44;18.20;;;9.48;;
53867;SDS011;41577;47.470;19.080;2023-11-21T00:35:56;21.40;;;9.68;;
53867;SDS011;41577;47.470;19.080;2023-11-21T00:36:08;21.02;;;9.85;;
53867;SDS011;41577;47.470;19.080;2023-11-21T00:36:20;20.27;;;9.70;;
53867;SDS011;41577;47.470;19.080;2023-11-21T00:36:32;17.10;;;10.10;;
53867;SDS011;41577;47.470;19.080;2023-11-21T00:36:44;16.63;;;9.77;;
53867;SDS011;41577;47.470;19.080;2023-11-21T00:36:59;15.57;;;9.45;;
53867;SDS011;41577;47.470;19.080;2023-11-21T00:37:11;15.07;;;9.20;;
53867;SDS011;41577;47.470;19.080;2023-11-21T00:37:22;13.40;;;9.07;;
53867;SDS011;41577;47.470;19.080;2023-11-21T00:37:34;13.95;;;9.10;;
53867;SDS011;41577;47.470;19.080;2023-11-21T00:37:46;13.10;;;9.30;;
53867;SDS011;41577;47.470;19.080;2023-11-21T00:37:58;13.52;;;9.60;;
53867;SDS011;41577;47.470;19.080;2023-11-21T00:38:10;14.40;;;9.65;;
53867;SDS011;41577;47.470;19.080;2023-11-21T00:38:22;14.75;;;9.13;;
53867;SDS011;41577;47.470;19.080;2023-11-21T00:38:33;14.40;;;9.20;;
53867;SDS011;41577;47.470;19.080;2023-11-21T00:38:45;14.27;;;9.32;;
53867;SDS011;41577;47.470;19.080;2023-11-21T00:38:58;15.73;;;9.45;;
53867;SDS011;41577;47.470;19.080;2023-11-21T00:39:10;19.23;;;9.82;;
53867;SDS011;41577;47.470;19.080;2023-11-21T00:39:22;18.85;;;9.68;;
53867;SDS011;41577;47.470;19.080;2023-11-21T00:39:33;17.13;;;9.90;;
53867;SDS011;41577;47.470;19.080;2023-11-21T00:39:45;15.77;;;9.52;;
53867;SDS011;41577;47.470;19.080;2023-11-21T00:39:57;14.68;;;9.13;;
53867;SDS011;41577;47.470;19.080;2023-11-21T00:40:09;14.13;;;8.90;;
53867;SDS011;41577;47.470;19.080;2023-11-21T00:40:22;14.70;;;8.95;;
53867;SDS011;41577;47.470;19.080;2023-11-21T00:40:34;15.13;;;9.30;;
53867;SDS011;41577;47.470;19.080;2023-11-21T00:40:46;15.95;;;9.40;;
53867;SDS011;41577;47.470;19.080;2023-11-21T00:40:58;16.02;;;9.30;;
53867;SDS011;41577;47.470;19.080;2023-11-21T00:41:10;16.80;;;9.85;;
53867;SDS011;41577;47.470;19.080;2023-11-21T00:41:22;16.27;;;9.95;;
53867;SDS011;41577;47.470;19.080;2023-11-21T00:41:34;18.80;;;9.57;;
53867;SDS011;41577;47.470;19.080;2023-11-21T00:41:46;18.73;;;9.65;;
53867;SDS011;41577;47.470;19.080;2023-11-21T00:41:59;15.77;;;10.00;;
53867;SDS011;41577;47.470;19.080;2023-11-21T00:42:11;14.65;;;10.13;;
53867;SDS011;41577;47.470;19.080;2023-11-21T00:42:23;16.40;;;10.68;;
53867;SDS011;41577;47.470;19.080;2023-11-21T00:42:35;18.65;;;10.30;;
53867;SDS011;41577;47.470;19.080;2023-11-21T00:42:47;18.48;;;9.90;;
53867;SDS011;41577;47.470;19.080;2023-11-21T00:42:59;20.52;;;9.88;;
53867;SDS011;41577;47.470;19.080;2023-11-21T00:43:12;19.98;;;9.90;;
53867;SDS011;41577;47.470;19.080;2023-11-21T00:43:24;16.88;;;9.82;;
53867;SDS011;41577;47.470;19.080;2023-11-21T00:43:36;16.00;;;9.35;;
53867;SDS011;41577;47.470;19.080;2023-11-21T00:43:48;15.00;;;9.75;;
53867;SDS011;41577;47.470;19.080;2023-11-21T00:44:00;18.92;;;10.18;;
53867;SDS011;41577;47.470;19.080;2023-11-21T00:44:12;19.90;;;10.15;;
53867;SDS011;41577;47.470;19.080;2023-11-21T00:44:23;20.90;;;9.50;;
53867;SDS011;41577;47.470;19.080;2023-11-21T00:44:37;17.33;;;8.90;;
53867;SDS011;41577;47.470;19.080;2023-11-21T00:44:49;14.05;;;9.07;;
53867;SDS011;41577;47.470;19.080;2023-11-21T00:45:01;12.90;;;9.05;;
53867;SDS011;41577;47.470;19.080;2023-11-21T00:45:13;13.52;;;8.88;;
53867;SDS011;41577;47.470;19.080;2023-11-21T00:45:25;16.85;;;9.35;;
53867;SDS011;41577;47.470;19.080;2023-11-21T00:45:37;16.70;;;9.48;;
53867;SDS011;41577;47.470;19.080;2023-11-21T00:45:49;14.25;;;8.85;;
53867;SDS011;41577;47.470;19.080;2023-11-21T00:46:03;13.30;;;8.48;;
53867;SDS011;41577;47.470;19.080;2023-11-21T00:46:15;15.30;;;9.00;;
53867;SDS011;41577;47.470;19.080;2023-11-21T00:46:28;15.68;;;9.15;;
53867;SDS011;41577;47.470;19.080;2023-11-21T00:46:39;19.17;;;9.38;;
53867;SDS011;41577;47.470;19.080;2023-11-21T00:46:54;17.90;;;8.90;;
53867;SDS011;41577;47.470;19.080;2023-11-21T00:47:06;14.18;;;8.82;;
53867;SDS011;41577;47.470;19.080;2023-11-21T00:47:18;15.77;;;9.07;;
53867;SDS011;41577;47.470;19.080;2023-11-21T00:47:30;15.73;;;9.52;;
53867;SDS011;41577;47.470;19.080;2023-11-21T00:47:42;12.95;;;8.70;;
53867;SDS011;41577;47.470;19.080;2023-11-21T00:47:54;12.25;;;8.57;;
53867;SDS011;41577;47.470;19.080;2023-11-21T00:48:06;14.32;;;9.40;;
53867;SDS011;41577;47.470;19.080;2023-11-21T00:48:18;19.92;;;10.05;;
53867;SDS011;41577;47.470;19.080;2023-11-21T00:48:30;20.02;;;9.52;;
53867;SDS011;41577;47.470;19.080;2023-11-21T00:48:41;25.65;;;9.45;;
53867;SDS011;41577;47.470;19.080;2023-11-21T00:48:53;21.55;;;9.50;;
53867;SDS011;41577;47.470;19.080;2023-11-21T00:49:05;13.27;;;8.95;;
53867;SDS011;41577;47.470;19.080;2023-11-21T00:49:17;16.55;;;8.82;;
53867;SDS011;41577;47.470;19.080;2023-11-21T00:49:30;20.52;;;9.35;;
53867;SDS011;41577;47.470;19.080;2023-11-21T00:49:41;19.10;;;9.35;;
53867;SDS011;41577;47.470;19.080;2023-11-21T00:49:53;18.23;;;8.80;;
53867;SDS011;41577;47.470;19.080;2023-11-21T00:50:05;14.98;;;8.55;;
53867;SDS011;41577;47.470;19.080;2023-11-21T00:50:18;17.55;;;8.88;;
53867;SDS011;41577;47.470;19.080;2023-11-21T00:50:30;16.52;;;9.02;;
53867;SDS011;41577;47.470;19.080;2023-11-21T00:50:42;12.55;;;8.52;;
53867;SDS011;41577;47.470;19.080;2023-11-21T00:50:53;11.38;;;8.30;;
53867;SDS011;41577;47.470;19.080;2023-11-21T00:51:06;11.63;;;8.43;;
53867;SDS011;41577;47.470;19.080;2023-11-21T00:51:18;13.25;;;8.20;;
53867;SDS011;41577;47.470;19.080;2023-11-21T00:51:29;15.10;;;8.32;;
53867;SDS011;41577;47.470;19.080;2023-11-21T00:51:41;16.33;;;8.85;;
53867;SDS011;41577;47.470;19.080;2023-11-21T00:51:53;14.40;;;8.75;;
53867;SDS011;41577;47.470;19.080;2023-11-21T00:52:05;13.85;;;8.55;;
53867;SDS011;41577;47.470;19.080;2023-11-21T00:52:18;13.80;;;8.82;;
53867;SDS011;41577;47.470;19.080;2023-11-21T00:52:30;15.40;;;8.70;;
53867;SDS011;41577;47.470;19.080;2023-11-21T00:52:42;15.63;;;8.65;;
53867;SDS011;41577;47.470;19.080;2023-11-21T00:52:54;15.40;;;9.15;;
53867;SDS011;41577;47.470;19.080;2023-11-21T00:53:06;15.30;;;9.15;;
53867;SDS011;41577;47.470;19.080;2023-11-21T00:53:19;12.18;;;8.63;;
53867;SDS011;41577;47.470;19.080;2023-11-21T00:53:31;12.52;;;8.75;;
53867;SDS011;41577;47.470;19.080;2023-11-21T00:53:43;13.32;;;8.50;;
53867;SDS011;41577;47.470;19.080;2023-11-21T00:53:56;14.70;;;8.80;;
53867;SDS011;41577;47.470;19.080;2023-11-21T00:54:07;15.13;;;9.02;;
53867;SDS011;41577;47.470;19.080;2023-11-21T00:54:19;13.48;;;8.63;;
53867;SDS011;41577;47.470;19.080;2023-11-21T00:54:31;14.68;;;8.60;;
53867;SDS011;41577;47.470;19.080;2023-11-21T00:54:45;15.60;;;8.70;;
53867;SDS011;41577;47.470;19.080;2023-11-21T00:54:57;16.83;;;8.57;;
53867;SDS011;41577;47.470;19.080;2023-11-21T00:55:09;17.33;;;8.43;;
53867;SDS011;41577;47.470;19.080;2023-11-21T00:55:21;15.77;;;8.30;;
53867;SDS011;41577;47.470;19.080;2023-11-21T00:55:33;14.57;;;7.90;;
53867;SDS011;41577;47.470;19.080;2023-11-21T00:55:45;12.85;;;7.72;;
53867;SDS011;41577;47.470;19.080;2023-11-21T00:55:57;13.02;;;8.07;;
53867;SDS011;41577;47.470;19.080;2023-11-21T00:56:09;13.77;;;8.65;;
53867;SDS011;41577;47.470;19.080;2023-11-21T00:56:21;15.27;;;8.48;;
53867;SDS011;41577;47.470;19.080;2023-11-21T00:56:32;14.20;;;8.00;;
53867;SDS011;41577;47.470;19.080;2023-11-21T00:56:44;15.90;;;8.43;;
53867;SDS011;41577;47.470;19.080;2023-11-21T00:56:56;14.20;;;8.27;;
53867;SDS011;41577;47.470;19.080;2023-11-21T00:57:09;13.55;;;8.15;;
53867;SDS011;41577;47.470;19.080;2023-11-21T00:57:21;13.13;;;8.05;;
53867;SDS011;41577;47.470;19.080;2023-11-21T00:57:33;14.25;;;8.80;;
53867;SDS011;41577;47.470;19.080;2023-11-21T00:57:45;15.00;;;9.38;;
53867;SDS011;41577;47.470;19.080;2023-11-21T00:57:57;14.48;;;9.13;;
53867;SDS011;41577;47.470;19.080;2023-11-21T00:58:09;11.40;;;8.35;;
53867;SDS011;41577;47.470;19.080;2023-11-21T00:58:21;12.00;;;8.20;;
53867;SDS011;41577;47.470;19.080;2023-11-21T00:58:33;11.73;;;7.72;;
53867;SDS011;41577;47.470;19.080;2023-11-21T00:58:45;12.20;;;7.55;;
53867;SDS011;41577;47.470;19.080;2023-11-21T00:58:57;13.38;;;8.07;;
53867;SDS011;41577;47.470;19.080;2023-11-21T00:59:09;12.52;;;8.07;;
53867;SDS011;41577;47.470;19.080;2023-11-21T00:59:21;11.38;;;8.00;;
53867;SDS011;41577;47.470;19.080;2023-11-21T00:59:33;12.55;;;8.05;;
53867;SDS011;41577;47.470;19.080;2023-11-21T00:59:45;13.85;;;8.25;;
53867;SDS011;41577;47.470;19.080;2023-11-21T00:59:57;16.50;;;8.75;;
53867;SDS011;41577;47.470;19.080;2023-11-21T01:00:09;15.73;;;8.52;;
53867;SDS011;41577;47.470;19.080;2023-11-21T01:00:22;13.20;;;8.55;;
53867;SDS011;41577;47.470;19.080;2023-11-21T01:00:33;14.95;;;8.85;;
53867;SDS011;41577;47.470;19.080;2023-11-21T01:00:45;15.82;;;9.02;;
53867;SDS011;41577;47.470;19.080;2023-11-21T01:00:57;14.10;;;8.55;;
53867;SDS011;41577;47.470;19.080;2023-11-21T01:01:09;11.73;;;7.82;;
53867;SDS011;41577;47.470;19.080;2023-11-21T01:01:22;11.15;;;7.72;;
53867;SDS011;41577;47.470;19.080;2023-11-21T01:01:33;12.15;;;7.80;;
53867;SDS011;41577;47.470;19.080;2023-11-21T01:01:45;15.18;;;8.25;;
53867;SDS011;41577;47.470;19.080;2023-11-21T01:01:57;15.07;;;8.10;;
53867;SDS011;41577;47.470;19.080;2023-11-21T01:02:09;16.00;;;8.38;;
53867;SDS011;41577;47.470;19.080;2023-11-21T01:02:21;12.55;;;7.88;;
53867;SDS011;41577;47.470;19.080;2023-11-21T01:02:33;14.95;;;8.55;;
53867;SDS011;41577;47.470;19.080;2023-11-21T01:02:45;15.95;;;8.30;;
53867;SDS011;41577;47.470;19.080;2023-11-21T01:02:58;16.35;;;8.00;;
53867;SDS011;41577;47.470;19.080;2023-11-21T01:03:10;16.42;;;7.78;;
53867;SDS011;41577;47.470;19.080;2023-11-21T01:03:22;19.13;;;7.63;;
53867;SDS011;41577;47.470;19.080;2023-11-21T01:03:35;19.15;;;7.75;;
53867;SDS011;41577;47.470;19.080;2023-11-21T01:03:47;22.55;;;7.85;;
53867;SDS011;41577;47.470;19.080;2023-11-21T01:03:59;16.17;;;7.72;;
53867;SDS011;41577;47.470;19.080;2023-11-21T01:04:10;15.25;;;7.70;;
53867;SDS011;41577;47.470;19.080;2023-11-21T01:04:22;15.73;;;7.88;;
53867;SDS011;41577;47.470;19.080;2023-11-21T01:04:34;15.13;;;7.60;;
53867;SDS011;41577;47.470;19.080;2023-11-21T01:04:46;12.43;;;7.47;;
53867;SDS011;41577;47.470;19.080;2023-11-21T01:04:59;10.27;;;7.47;;
53867;SDS011;41577;47.470;19.080;2023-11-21T01:05:10;11.35;;;7.65;;
53867;SDS011;41577;47.470;19.080;2023-11-21T01:05:22;12.25;;;7.53;;
53867;SDS011;41577;47.470;19.080;2023-11-21T01:05:34;12.18;;;7.70;;
53867;SDS011;41577;47.470;19.080;2023-11-21T01:05:46;11.38;;;7.60;;
53867;SDS011;41577;47.470;19.080;2023-11-21T01:05:58;12.52;;;7.63;;
53867;SDS011;41577;47.470;19.080;2023-11-21T01:06:10;12.48;;;7.72;;
53867;SDS011;41577;47.470;19.080;2023-11-21T01:06:26;12.73;;;8.23;;
53867;SDS011;41577;47.470;19.080;2023-11-21T01:06:37;12.35;;;8.48;;
53867;SDS011;41577;47.470;19.080;2023-11-21T01:06:49;11.65;;;8.23;;
53867;SDS011;41577;47.470;19.080;2023-11-21T01:07:01;14.38;;;7.90;;
53867;SDS011;41577;47.470;19.080;2023-11-21T01:07:14;15.85;;;7.72;;
53867;SDS011;41577;47.470;19.080;2023-11-21T01:07:25;14.93;;;7.80;;
53867;SDS011;41577;47.470;19.080;2023-11-21T01:07:37;11.02;;;7.35;;
53867;SDS011;41577;47.470;19.080;2023-11-21T01:07:49;11.10;;;7.18;;
53867;SDS011;41577;47.470;19.080;2023-11-21T01:08:01;12.85;;;7.10;;
53867;SDS011;41577;47.470;19.080;2023-11-21T01:08:13;14.73;;;7.45;;
53867;SDS011;41577;47.470;19.080;2023-11-21T01:08:26;15.45;;;7.90;;
53867;SDS011;41577;47.470;19.080;2023-11-21T01:08:38;16.88;;;7.82;;
53867;SDS011;41577;47.470;19.080;2023-11-21T01:08:49;18.83;;;7.75;;
53867;SDS011;41577;47.470;19.080;2023-11-21T01:09:01;14.68;;;7.32;;
53867;SDS011;41577;47.470;19.080;2023-11-21T01:09:13;13.00;;;7.43;;
53867;SDS011;41577;47.470;19.080;2023-11-21T01:09:25;13.52;;;7.75;;
53867;SDS011;41577;47.470;19.080;2023-11-21T01:09:37;13.55;;;7.53;;
53867;SDS011;41577;47.470;19.080;2023-11-21T01:09:49;14.55;;;7.35;;
53867;SDS011;41577;47.470;19.080;2023-11-21T01:10:00;17.08;;;7.55;;
53867;SDS011;41577;47.470;19.080;2023-11-21T01:10:13;20.77;;;8.18;;
53867;SDS011;41577;47.470;19.080;2023-11-21T01:10:25;16.70;;;7.60;;
53867;SDS011;41577;47.470;19.080;2023-11-21T01:10:38;14.48;;;7.22;;